createdAt,value
2022-10-07T00:01:11.199Z,13.30
2022-10-07T00:03:39.943Z,11.20
2022-10-07T00:06:19.911Z,11.90
2022-10-07T00:08:52.595Z,13.70
2022-10-07T00:11:27.086Z,13.00
2022-10-07T00:13:58.681Z,14.10
2022-10-07T00:16:40.856Z,14.10
2022-10-07T00:19:13.144Z,14.80
2022-10-07T00:21:41.279Z,12.70
2022-10-07T00:24:10.451Z,12.70
2022-10-07T00:26:38.786Z,11.30
2022-10-07T00:29:07.165Z,13.80
2022-10-07T00:31:37.423Z,15.10
2022-10-07T00:34:05.676Z,14.30
2022-10-07T00:36:39.982Z,14.60
2022-10-07T00:39:14.712Z,14.40
2022-10-07T00:41:50.351Z,12.50
2022-10-07T00:44:34.121Z,14.50
2022-10-07T00:47:28.604Z,13.20
2022-10-07T00:50:04.966Z,12.80
2022-10-07T00:52:40.637Z,12.70
2022-10-07T00:55:17.416Z,11.60
2022-10-07T00:57:48.864Z,11.90
2022-10-07T01:00:17.417Z,14.20
2022-10-07T01:02:47.897Z,10.80
2022-10-07T01:05:17.838Z,11.20
2022-10-07T01:07:48.607Z,14.10
2022-10-07T01:10:20.615Z,11.90
2022-10-07T01:12:54.501Z,12.70
2022-10-07T01:15:31.808Z,14.00
2022-10-07T01:18:12.108Z,17.10
2022-10-07T01:21:01.793Z,11.10
2022-10-07T01:23:57.350Z,11.10
2022-10-07T01:27:01.972Z,13.70
2022-10-07T01:29:56.185Z,10.70
2022-10-07T01:32:36.724Z,12.10
2022-10-07T01:35:24.713Z,14.50
2022-10-07T01:38:01.597Z,16.30
2022-10-07T01:40:39.841Z,14.80
2022-10-07T01:43:08.405Z,11.80
2022-10-07T01:45:41.539Z,12.30
2022-10-07T01:48:10.672Z,11.90
2022-10-07T01:50:39.621Z,11.50
2022-10-07T01:53:26.065Z,12.50
2022-10-07T01:56:36.980Z,13.90
2022-10-07T01:59:36.957Z,15.50
2022-10-07T02:02:14.685Z,12.40
2022-10-07T02:05:24.407Z,13.40
2022-10-07T02:08:32.551Z,11.90
2022-10-07T02:11:27.562Z,15.00
2022-10-07T02:14:21.876Z,14.70
2022-10-07T02:17:04.175Z,18.00
2022-10-07T02:19:45.083Z,13.00
2022-10-07T02:22:17.683Z,15.80
2022-10-07T02:24:47.911Z,12.70
2022-10-07T02:27:24.325Z,15.40
2022-10-07T02:30:00.767Z,16.60
2022-10-07T02:32:31.705Z,12.40
2022-10-07T02:35:05.424Z,13.80
2022-10-07T02:37:38.350Z,13.20
2022-10-07T02:42:57.059Z,15.80
2022-10-07T02:45:28.525Z,15.60
2022-10-07T02:48:10.775Z,17.20
2022-10-07T02:50:47.458Z,12.40
2022-10-07T02:53:17.018Z,14.00
2022-10-07T02:55:50.817Z,13.60
2022-10-07T02:58:24.501Z,16.70
2022-10-07T03:00:59.478Z,13.60
2022-10-07T03:03:28.773Z,13.60
2022-10-07T03:06:04.625Z,15.40
2022-10-07T03:08:34.274Z,13.50
2022-10-07T03:11:02.812Z,13.20
2022-10-07T03:13:31.425Z,16.70
2022-10-07T03:16:05.758Z,15.40
2022-10-07T03:18:34.550Z,20.00
2022-10-07T03:21:25.904Z,12.50
2022-10-07T03:23:56.041Z,12.10
2022-10-07T03:26:27.305Z,12.60
2022-10-07T03:28:55.591Z,16.20
2022-10-07T03:31:24.153Z,13.40
2022-10-07T03:33:52.758Z,11.10
2022-10-07T03:36:21.458Z,12.30
2022-10-07T03:38:51.118Z,11.90
2022-10-07T03:41:19.561Z,10.90
2022-10-07T03:43:48.966Z,11.60
2022-10-07T03:46:20.778Z,11.70
2022-10-07T03:48:49.035Z,11.50
2022-10-07T03:51:18.365Z,11.00
2022-10-07T03:53:46.802Z,11.30
2022-10-07T03:56:14.939Z,13.50
2022-10-07T03:58:43.929Z,14.90
2022-10-07T04:01:17.578Z,11.90
2022-10-07T04:03:49.621Z,14.00
2022-10-07T04:06:18.055Z,13.10
2022-10-07T04:08:46.403Z,11.50
2022-10-07T04:11:14.637Z,15.10
2022-10-07T04:13:45.313Z,19.60
2022-10-07T04:16:14.580Z,17.90
2022-10-07T04:18:43.940Z,20.80
2022-10-07T04:21:12.784Z,23.50
2022-10-07T04:23:42.406Z,21.40
2022-10-07T04:26:12.721Z,15.00
2022-10-07T04:28:44.471Z,15.80
2022-10-07T04:31:16.761Z,19.60
2022-10-07T04:33:47.326Z,17.40
2022-10-07T04:36:20.114Z,18.90
2022-10-07T04:38:52.537Z,15.50
2022-10-07T04:41:24.717Z,26.60
2022-10-07T04:43:57.580Z,23.20
2022-10-07T04:46:28.470Z,19.30
2022-10-07T04:49:01.992Z,22.10
2022-10-07T04:51:31.283Z,22.00
2022-10-07T04:54:00.522Z,19.30
2022-10-07T04:56:33.496Z,18.90
2022-10-07T04:59:02.614Z,26.50
2022-10-07T05:01:31.032Z,21.10
2022-10-07T05:03:59.801Z,24.10
2022-10-07T05:06:28.361Z,24.60
2022-10-07T05:08:56.743Z,20.70
2022-10-07T05:11:26.026Z,22.30
2022-10-07T05:14:05.310Z,20.90
2022-10-07T05:16:33.842Z,22.70
2022-10-07T05:19:02.148Z,23.70
2022-10-07T05:21:30.408Z,21.50
2022-10-07T05:23:59.236Z,21.80
2022-10-07T05:26:31.609Z,19.20
2022-10-07T05:29:01.059Z,21.90
2022-10-07T05:31:34.082Z,23.60
2022-10-07T05:34:03.026Z,17.30
2022-10-07T05:36:31.574Z,25.40
2022-10-07T05:39:00.717Z,23.30
2022-10-07T05:41:45.403Z,23.90
2022-10-07T05:44:15.344Z,24.90
2022-10-07T05:46:43.740Z,20.70
2022-10-07T05:49:12.309Z,16.70
2022-10-07T05:51:42.011Z,24.10
2022-10-07T05:54:10.281Z,25.70
2022-10-07T05:56:41.731Z,31.90
2022-10-07T05:59:11.338Z,23.40
2022-10-07T06:01:42.903Z,16.90
2022-10-07T06:04:15.006Z,22.40
2022-10-07T06:06:45.279Z,20.40
2022-10-07T06:09:33.151Z,25.10
2022-10-07T06:12:23.315Z,21.60
2022-10-07T06:14:52.125Z,22.70
2022-10-07T06:17:20.276Z,30.70
2022-10-07T06:19:48.900Z,45.20
2022-10-07T06:22:17.983Z,37.10
2022-10-07T06:24:46.360Z,44.50
2022-10-07T06:27:14.589Z,38.80
2022-10-07T06:29:43.240Z,33.60
2022-10-07T06:32:11.504Z,31.30
2022-10-07T06:34:40.296Z,22.60
2022-10-07T06:37:08.639Z,21.10
2022-10-07T06:39:36.868Z,27.80
2022-10-07T06:42:05.556Z,17.50
2022-10-07T06:44:43.132Z,19.20
2022-10-07T06:47:12.573Z,20.90
2022-10-07T06:49:42.422Z,27.70
2022-10-07T06:52:11.087Z,24.70
2022-10-07T06:54:39.599Z,27.10
2022-10-07T06:57:26.225Z,33.00
2022-10-07T06:59:56.329Z,26.60
2022-10-07T07:02:25.910Z,23.80
2022-10-07T07:04:57.589Z,34.10
2022-10-07T07:07:26.637Z,26.10
2022-10-07T07:09:55.176Z,28.40
2022-10-07T07:12:25.590Z,32.90
2022-10-07T07:14:54.905Z,40.10
2022-10-07T07:17:23.103Z,37.80
2022-10-07T07:19:51.514Z,46.20
2022-10-07T07:22:20.181Z,34.20
2022-10-07T07:24:49.726Z,35.00
2022-10-07T07:27:18.051Z,15.20
2022-10-07T07:29:46.561Z,16.90
2022-10-07T07:32:14.857Z,17.80
2022-10-07T07:34:44.384Z,32.70
2022-10-07T07:37:17.446Z,29.30
2022-10-07T07:39:48.489Z,34.80
2022-10-07T07:42:19.086Z,40.60
2022-10-07T07:44:50.133Z,37.30
2022-10-07T07:47:18.470Z,31.40
2022-10-07T07:49:49.688Z,28.10
2022-10-07T07:52:25.370Z,23.70
2022-10-07T07:54:57.962Z,23.10
2022-10-07T07:57:27.692Z,24.80
2022-10-07T07:59:57.892Z,24.20
2022-10-07T08:02:26.201Z,24.70
2022-10-07T08:04:54.641Z,24.20
2022-10-07T08:07:23.170Z,20.30
2022-10-07T08:09:51.942Z,20.80
2022-10-07T08:12:22.250Z,17.30
2022-10-07T08:14:52.256Z,29.10
2022-10-07T08:17:22.269Z,24.50
2022-10-07T08:19:50.911Z,25.40
2022-10-07T08:22:19.280Z,29.00
2022-10-07T08:24:50.865Z,28.30
2022-10-07T08:27:20.515Z,25.00
2022-10-07T08:29:49.706Z,20.00
2022-10-07T08:32:17.935Z,17.80
2022-10-07T08:34:46.170Z,26.30
2022-10-07T08:37:14.274Z,27.00
2022-10-07T08:39:42.513Z,21.50
2022-10-07T08:43:28.563Z,31.80
2022-10-07T08:45:56.955Z,29.90
2022-10-07T08:48:33.872Z,23.90
2022-10-07T08:51:39.247Z,24.20
2022-10-07T08:54:13.944Z,25.40
2022-10-07T08:56:44.314Z,21.60
2022-10-07T08:59:47.771Z,20.30
2022-10-07T09:02:31.954Z,24.50
2022-10-07T09:05:24.472Z,39.10
2022-10-07T09:07:58.101Z,26.50
2022-10-07T09:10:39.582Z,18.30
2022-10-07T09:13:32.729Z,25.30
2022-10-07T09:16:14.498Z,19.80
2022-10-07T09:18:50.917Z,22.40
2022-10-07T09:21:43.839Z,13.30
2022-10-07T09:24:29.082Z,15.00
2022-10-07T09:27:01.117Z,13.80
2022-10-07T09:29:31.150Z,28.40
2022-10-07T09:31:59.299Z,26.10
2022-10-07T09:34:30.673Z,14.50
2022-10-07T09:37:24.622Z,15.60
2022-10-07T09:39:57.378Z,13.90
2022-10-07T09:42:37.540Z,14.00
2022-10-07T09:45:33.597Z,14.40
2022-10-07T09:48:07.592Z,8.40
2022-10-07T09:50:39.443Z,12.90
2022-10-07T09:53:22.657Z,10.20
2022-10-07T09:55:55.254Z,11.40
2022-10-07T09:58:30.262Z,10.70
2022-10-07T10:01:01.267Z,12.00
2022-10-07T10:03:36.289Z,16.50
2022-10-07T10:06:08.792Z,12.90
2022-10-07T10:08:42.131Z,12.10
2022-10-07T10:11:30.261Z,13.20
2022-10-07T10:13:58.339Z,10.80
2022-10-07T10:16:36.171Z,11.00
2022-10-07T10:19:22.093Z,10.90
2022-10-07T10:21:57.083Z,7.40
2022-10-07T10:24:53.300Z,12.50
2022-10-07T10:27:51.427Z,9.20
2022-10-07T10:30:23.439Z,8.30
2022-10-07T10:33:37.367Z,10.70
2022-10-07T10:39:14.602Z,8.50
2022-10-07T10:41:49.099Z,11.50
2022-10-07T10:45:08.303Z,9.40
2022-10-07T10:48:16.889Z,8.50
2022-10-07T10:50:51.534Z,5.80
2022-10-07T10:53:38.085Z,8.10
2022-10-07T10:56:43.101Z,4.90
2022-10-07T10:59:42.592Z,4.70
2022-10-07T11:02:43.886Z,4.40
2022-10-07T11:05:26.091Z,5.00
2022-10-07T11:08:02.617Z,7.40
2022-10-07T11:10:47.605Z,13.30
2022-10-07T11:13:21.475Z,11.40
2022-10-07T11:16:01.314Z,4.10
2022-10-07T11:18:47.308Z,5.20
2022-10-07T11:21:25.073Z,5.80
2022-10-07T11:24:19.969Z,6.70
2022-10-07T11:27:07.609Z,3.30
2022-10-07T11:30:05.396Z,4.80
2022-10-07T11:33:04.926Z,4.60
2022-10-07T11:35:49.303Z,3.80
2022-10-07T11:38:22.639Z,6.20
2022-10-07T11:41:18.522Z,3.10
2022-10-07T11:43:56.943Z,3.10
2022-10-07T11:46:34.053Z,2.70
2022-10-07T11:49:29.355Z,3.60
2022-10-07T11:52:02.845Z,2.80
2022-10-07T11:54:43.474Z,5.60
2022-10-07T11:57:24.602Z,3.50
2022-10-07T12:00:25.641Z,3.00
2022-10-07T12:02:56.402Z,3.50
2022-10-07T12:05:36.513Z,2.70
2022-10-07T12:08:29.483Z,3.50
2022-10-07T12:11:12.926Z,3.30
2022-10-07T12:13:47.019Z,3.20
2022-10-07T12:16:24.048Z,2.80
2022-10-07T12:19:06.334Z,4.30
2022-10-07T12:22:05.834Z,3.90
2022-10-07T12:24:36.882Z,5.50
2022-10-07T12:27:13.565Z,3.70
2022-10-07T12:29:58.663Z,3.10
2022-10-07T12:32:45.910Z,4.10
2022-10-07T12:35:29.737Z,4.30
2022-10-07T12:38:18.460Z,4.40
2022-10-07T12:41:07.396Z,5.10
2022-10-07T12:43:56.473Z,3.50
2022-10-07T12:46:29.425Z,5.10
2022-10-07T12:49:05.175Z,4.40
2022-10-07T12:51:41.250Z,3.80
2022-10-07T12:54:43.944Z,4.90
2022-10-07T12:57:18.725Z,4.90
2022-10-07T13:00:08.147Z,2.70
2022-10-07T13:02:36.318Z,3.40
2022-10-07T13:05:43.721Z,3.30
2022-10-07T13:09:02.810Z,6.60
2022-10-07T13:11:55.256Z,3.40
2022-10-07T13:15:11.972Z,6.60
2022-10-07T13:17:49.729Z,5.10
2022-10-07T13:20:55.097Z,3.40
2022-10-07T13:23:27.524Z,2.70
2022-10-07T13:25:59.400Z,4.70
2022-10-07T13:28:48.217Z,4.40
2022-10-07T13:31:27.208Z,2.80
2022-10-07T13:33:58.697Z,3.70
2022-10-07T13:36:35.084Z,3.40
2022-10-07T13:39:18.478Z,3.20
2022-10-07T13:41:50.768Z,2.50
2022-10-07T13:44:21.274Z,2.40
2022-10-07T13:47:04.833Z,2.40
2022-10-07T13:49:43.504Z,3.60
2022-10-07T13:52:32.938Z,2.10
2022-10-07T13:55:01.254Z,3.00
2022-10-07T13:57:31.440Z,2.40
2022-10-07T14:00:00.151Z,2.70
2022-10-07T14:02:28.696Z,3.00
2022-10-07T14:05:18.627Z,2.70
2022-10-07T14:07:46.868Z,3.70
2022-10-07T14:10:15.045Z,2.70
2022-10-07T14:12:55.641Z,3.40
2022-10-07T14:15:36.533Z,3.00
2022-10-07T14:18:04.552Z,4.00
2022-10-07T14:20:40.924Z,2.40
2022-10-07T14:23:31.286Z,2.90
2022-10-07T14:26:06.327Z,4.30
2022-10-07T14:28:36.239Z,6.00
2022-10-07T14:31:26.018Z,3.00
2022-10-07T14:34:15.820Z,4.00
2022-10-07T14:37:10.412Z,3.90
2022-10-07T14:39:39.661Z,4.40
2022-10-07T14:42:22.868Z,3.00
2022-10-07T14:47:24.919Z,4.10
2022-10-07T14:52:23.761Z,3.80
2022-10-07T14:54:52.819Z,3.80
2022-10-07T14:57:20.943Z,4.00
2022-10-07T14:59:50.187Z,6.80
2022-10-07T15:02:18.429Z,5.30
2022-10-07T15:04:47.792Z,4.60
2022-10-07T15:07:17.093Z,7.10
2022-10-07T15:09:46.183Z,8.80
2022-10-07T15:12:16.651Z,7.90
2022-10-07T15:14:44.830Z,6.40
2022-10-07T15:17:14.502Z,7.50
2022-10-07T15:19:42.652Z,8.60
2022-10-07T15:22:10.994Z,6.90
2022-10-07T15:24:40.013Z,9.00
2022-10-07T15:27:10.001Z,6.00
2022-10-07T15:29:38.096Z,8.50
2022-10-07T15:32:08.222Z,11.10
2022-10-07T15:34:36.299Z,7.50
2022-10-07T15:37:04.492Z,8.60
2022-10-07T15:39:36.204Z,8.50
2022-10-07T15:42:10.260Z,11.10
2022-10-07T15:44:41.282Z,7.00
2022-10-07T15:47:10.113Z,8.80
2022-10-07T15:49:38.262Z,9.40
2022-10-07T15:52:09.224Z,9.60
2022-10-07T15:54:38.491Z,8.10
2022-10-07T15:57:08.379Z,9.50
2022-10-07T15:59:36.675Z,12.80
2022-10-07T16:02:06.138Z,9.30
2022-10-07T16:04:34.273Z,8.00
2022-10-07T16:07:02.416Z,9.20
2022-10-07T16:09:30.692Z,12.10
2022-10-07T16:11:58.793Z,15.10
2022-10-07T16:14:26.876Z,8.50
2022-10-07T16:16:54.963Z,11.30
2022-10-07T16:19:23.040Z,11.30
2022-10-07T16:21:51.092Z,11.80
2022-10-07T16:24:21.820Z,12.30
2022-10-07T16:26:50.728Z,16.10
2022-10-07T16:29:41.737Z,9.60
2022-10-07T16:32:11.565Z,11.70
2022-10-07T16:34:44.561Z,19.00
2022-10-07T16:37:13.196Z,15.20
2022-10-07T16:39:41.879Z,14.40
2022-10-07T16:42:10.064Z,21.10
2022-10-07T16:44:38.832Z,24.90
2022-10-07T16:47:06.867Z,21.30
2022-10-07T16:49:36.565Z,23.40
2022-10-07T16:52:06.431Z,20.80
2022-10-07T16:54:35.528Z,17.40
2022-10-07T16:57:04.145Z,18.30
2022-10-07T16:59:32.228Z,16.00
2022-10-07T17:02:02.673Z,20.50
2022-10-07T17:04:30.877Z,18.80
2022-10-07T17:06:58.941Z,24.40
2022-10-07T17:09:27.283Z,26.80
2022-10-07T17:11:56.833Z,25.70
2022-10-07T17:14:24.979Z,22.50
2022-10-07T17:16:57.803Z,27.10
2022-10-07T17:19:28.509Z,37.00
2022-10-07T17:21:59.277Z,34.00
2022-10-07T17:24:27.471Z,30.50
2022-10-07T17:26:56.400Z,33.60
2022-10-07T17:29:26.490Z,30.90
2022-10-07T17:31:54.881Z,36.10
2022-10-07T17:34:23.543Z,37.40
2022-10-07T17:36:51.752Z,33.60
2022-10-07T17:39:20.096Z,38.10
2022-10-07T17:41:48.511Z,37.60
2022-10-07T17:44:17.402Z,42.00
2022-10-07T17:46:45.800Z,35.90
2022-10-07T17:49:13.899Z,35.20
2022-10-07T17:51:43.323Z,33.40
2022-10-07T17:54:14.934Z,35.00
2022-10-07T17:56:44.537Z,33.40
2022-10-07T17:59:12.784Z,32.80
2022-10-07T18:01:42.192Z,34.70
2022-10-07T18:04:15.264Z,37.80
2022-10-07T18:06:44.587Z,43.10
2022-10-07T18:09:18.672Z,49.10
2022-10-07T18:12:05.132Z,40.80
2022-10-07T18:14:54.112Z,42.00
2022-10-07T18:17:24.680Z,39.20
2022-10-07T18:19:53.324Z,39.30
2022-10-07T18:22:21.875Z,40.10
2022-10-07T18:24:50.050Z,40.20
2022-10-07T18:27:18.463Z,35.20
2022-10-07T18:29:46.495Z,40.60
2022-10-07T18:32:14.552Z,33.20
2022-10-07T18:34:42.689Z,35.20
2022-10-07T18:37:10.861Z,34.20
2022-10-07T18:39:39.701Z,30.50
2022-10-07T18:42:07.822Z,26.70
2022-10-07T18:44:35.963Z,27.10
2022-10-07T18:47:04.020Z,26.10
2022-10-07T18:49:32.099Z,26.70
2022-10-07T18:52:00.171Z,27.50
2022-10-07T18:54:28.364Z,23.90
2022-10-07T18:56:56.845Z,30.90
2022-10-07T18:59:24.903Z,29.90
2022-10-07T19:01:53.155Z,29.80
2022-10-07T19:04:21.417Z,28.80
2022-10-07T19:06:49.509Z,30.50
2022-10-07T19:09:20.744Z,35.90
2022-10-07T19:11:49.536Z,28.40
2022-10-07T19:14:17.915Z,34.90
2022-10-07T19:16:51.763Z,32.80
2022-10-07T19:19:23.268Z,35.10
2022-10-07T19:21:54.533Z,30.20
2022-10-07T19:24:45.619Z,29.10
2022-10-07T19:27:14.306Z,32.90
2022-10-07T19:29:42.397Z,30.20
2022-10-07T19:32:10.453Z,30.70
2022-10-07T19:34:38.591Z,30.60
2022-10-07T19:37:06.659Z,32.30
2022-10-07T19:39:34.737Z,32.70
2022-10-07T19:42:03.280Z,32.80
2022-10-07T19:44:32.336Z,30.80
2022-10-07T19:47:01.466Z,31.10
2022-10-07T19:49:29.505Z,33.10
2022-10-07T19:51:57.530Z,31.30
2022-10-07T19:54:25.653Z,37.80
2022-10-07T19:56:53.721Z,35.50
2022-10-07T19:59:40.509Z,35.30
2022-10-07T20:02:12.030Z,38.40
2022-10-07T20:04:41.421Z,35.50
2022-10-07T20:07:09.460Z,35.10
2022-10-07T20:09:37.652Z,36.80
2022-10-07T20:12:05.803Z,34.90
2022-10-07T20:14:35.319Z,34.30
2022-10-07T20:17:03.451Z,38.80
2022-10-07T20:19:31.593Z,33.10
2022-10-07T20:22:01.285Z,33.40
2022-10-07T20:24:29.380Z,35.70
2022-10-07T20:26:57.427Z,36.40
2022-10-07T20:29:26.117Z,28.80
2022-10-07T20:31:54.221Z,32.60
2022-10-07T20:34:22.349Z,36.00
2022-10-07T20:36:50.540Z,32.40
2022-10-07T20:39:39.181Z,34.20
2022-10-07T20:42:21.442Z,31.30
2022-10-07T20:44:51.002Z,29.00
2022-10-07T20:47:21.451Z,32.60
2022-10-07T20:49:51.312Z,30.60
2022-10-07T20:52:22.527Z,31.50
2022-10-07T20:54:52.040Z,32.30
2022-10-07T20:57:27.421Z,28.60
2022-10-07T20:59:55.710Z,24.40
2022-10-07T21:02:24.405Z,23.40
2022-10-07T21:04:52.486Z,26.00
2022-10-07T21:07:21.079Z,25.80
2022-10-07T21:09:49.145Z,27.40
2022-10-07T21:12:18.537Z,22.20
2022-10-07T21:14:48.550Z,25.30
2022-10-07T21:17:16.976Z,28.90
2022-10-07T21:19:45.767Z,21.70
2022-10-07T21:22:13.843Z,20.40
2022-10-07T21:24:41.913Z,26.10
2022-10-07T21:27:10.097Z,26.20
2022-10-07T21:29:41.075Z,28.60
2022-10-07T21:32:11.410Z,22.70
2022-10-07T21:34:40.037Z,25.80
2022-10-07T21:37:08.181Z,28.20
2022-10-07T21:39:36.282Z,27.40
2022-10-07T21:42:04.524Z,26.00
2022-10-07T21:44:33.592Z,29.90
2022-10-07T21:47:01.739Z,34.90
2022-10-07T21:49:31.845Z,30.70
2022-10-07T21:51:59.876Z,30.20
2022-10-07T21:54:27.916Z,29.40
2022-10-07T21:56:55.938Z,25.00
2022-10-07T21:59:24.337Z,28.50
2022-10-07T22:01:52.445Z,29.20
2022-10-07T22:04:20.585Z,26.20
2022-10-07T22:07:07.571Z,30.80
2022-10-07T22:09:35.866Z,28.60
2022-10-07T22:12:04.049Z,28.00
2022-10-07T22:14:32.079Z,28.20
2022-10-07T22:17:00.156Z,29.10
2022-10-07T22:19:28.166Z,26.50
2022-10-07T22:21:56.196Z,24.50
2022-10-07T22:24:24.540Z,24.90
2022-10-07T22:26:52.593Z,25.70
2022-10-07T22:29:21.722Z,25.00
2022-10-07T22:31:50.195Z,25.20
2022-10-07T22:34:37.090Z,25.00
2022-10-07T22:37:06.299Z,25.20
2022-10-07T22:39:34.391Z,25.60
2022-10-07T22:42:03.026Z,28.40
2022-10-07T22:44:31.741Z,26.90
2022-10-07T22:46:59.887Z,25.90
2022-10-07T22:49:30.199Z,23.20
2022-10-07T22:52:00.169Z,25.40
2022-10-07T22:54:29.969Z,26.40
2022-10-07T22:56:58.019Z,23.10
2022-10-07T22:59:26.099Z,28.20
2022-10-07T23:01:54.154Z,29.70
2022-10-07T23:04:22.199Z,24.60
2022-10-07T23:06:50.340Z,24.90
2022-10-07T23:09:18.371Z,24.10
2022-10-07T23:11:46.478Z,26.80
2022-10-07T23:14:14.541Z,29.30
2022-10-07T23:16:44.301Z,24.90
2022-10-07T23:19:12.618Z,24.40
2022-10-07T23:21:40.998Z,30.50
2022-10-07T23:24:10.944Z,22.50
2022-10-07T23:26:39.027Z,23.70
2022-10-07T23:29:07.812Z,22.40
2022-10-07T23:31:36.159Z,23.60
2022-10-07T23:34:06.456Z,20.40
2022-10-07T23:36:35.024Z,25.50
2022-10-07T23:39:03.816Z,20.70
2022-10-07T23:41:32.776Z,22.60
2022-10-07T23:44:03.209Z,20.30
2022-10-07T23:46:37.559Z,21.20
2022-10-07T23:49:06.351Z,22.40
2022-10-07T23:51:34.401Z,19.40
2022-10-07T23:54:04.629Z,20.50
2022-10-07T23:56:33.568Z,23.30
2022-10-07T23:59:02.518Z,22.30
